createdAt,value
2019-04-30T00:03:37.652Z,98088.08
2019-04-30T00:08:39.220Z,98089.49
2019-04-30T00:13:40.243Z,98080.25
2019-04-30T00:18:55.428Z,98068.87
2019-04-30T00:23:45.800Z,98066.48
2019-04-30T00:28:47.836Z,98061.77
2019-04-30T00:33:52.738Z,98065.96
2019-04-30T00:38:51.752Z,98053.81
2019-04-30T00:43:52.607Z,98041.28
2019-04-30T00:48:55.544Z,98034.87
2019-04-30T00:53:56.477Z,98025.63
2019-04-30T00:58:57.972Z,98026.78
2019-04-30T01:04:05.033Z,98020.39
2019-04-30T01:09:08.707Z,98023.05
2019-04-30T01:14:09.880Z,98021.89
2019-04-30T01:19:26.597Z,98007.77
2019-04-30T01:24:13.886Z,98004.80
2019-04-30T01:29:15.265Z,97985.67
2019-04-30T01:34:16.436Z,97980.44
2019-04-30T01:39:19.401Z,97983.01
2019-04-30T01:44:20.077Z,97975.50
2019-04-30T01:49:25.706Z,97981.77
2019-04-30T01:54:24.411Z,97979.34
2019-04-30T01:59:29.099Z,97968.36
2019-04-30T02:04:31.466Z,97963.03
2019-04-30T02:09:32.574Z,97956.46
2019-04-30T02:14:33.563Z,97950.89
2019-04-30T02:19:34.459Z,97941.91
2019-04-30T02:24:35.333Z,97934.48
2019-04-30T02:29:36.219Z,97930.64
2019-04-30T02:34:44.827Z,97928.85
2019-04-30T02:39:46.184Z,97926.65
2019-04-30T02:44:50.196Z,97926.30
2019-04-30T02:49:53.355Z,97922.94
2019-04-30T02:54:55.227Z,97913.33
2019-04-30T03:00:16.104Z,97898.88
2019-04-30T03:05:19.551Z,97896.45
2019-04-30T03:10:20.113Z,97891.30
2019-04-30T03:15:22.885Z,97894.91
2019-04-30T03:20:36.414Z,97903.23
2019-04-30T03:25:40.349Z,97904.83
2019-04-30T03:30:42.058Z,97904.16
2019-04-30T03:35:47.865Z,97901.66
2019-04-30T03:40:46.097Z,97893.81
2019-04-30T03:45:49.733Z,97895.88
2019-04-30T03:50:56.288Z,97893.01
2019-04-30T03:55:52.616Z,97896.16
2019-04-30T04:01:00.346Z,97907.22
2019-04-30T04:06:21.428Z,97898.45
2019-04-30T04:11:24.111Z,97899.77
2019-04-30T04:16:24.994Z,97905.14
2019-04-30T04:21:25.954Z,97888.19
2019-04-30T04:26:26.835Z,97887.44
2019-04-30T04:31:29.825Z,97885.51
2019-04-30T04:36:30.573Z,97884.55
2019-04-30T04:41:31.593Z,97881.58
2019-04-30T04:46:32.489Z,97882.05
2019-04-30T04:51:38.501Z,97875.58
2019-04-30T04:56:36.138Z,97875.98
2019-04-30T05:01:38.790Z,97880.91
2019-04-30T05:06:39.885Z,97878.70
2019-04-30T05:11:40.761Z,97874.81
2019-04-30T05:16:41.645Z,97866.37
2019-04-30T05:21:44.745Z,97860.78
2019-04-30T05:26:45.304Z,97860.20
2019-04-30T05:31:46.181Z,97856.69
2019-04-30T05:36:48.847Z,97865.89
2019-04-30T05:41:49.847Z,97876.17
2019-04-30T05:46:50.725Z,97890.13
2019-04-30T05:51:55.540Z,97893.17
2019-04-30T05:56:54.616Z,97907.80
2019-04-30T06:01:55.496Z,97904.78
2019-04-30T06:06:56.396Z,97898.08
2019-04-30T06:11:59.303Z,97896.90
2019-04-30T06:17:09.744Z,97898.63
2019-04-30T06:22:11.204Z,97892.66
2019-04-30T06:27:12.372Z,97896.89
2019-04-30T06:32:13.415Z,97892.52
2019-04-30T06:37:14.373Z,97889.87
2019-04-30T06:42:15.283Z,97883.86
2019-04-30T06:47:16.548Z,97887.72
2019-04-30T06:52:21.358Z,97890.02
2019-04-30T06:57:20.195Z,97889.66
2019-04-30T07:02:21.184Z,97890.29
2019-04-30T07:07:30.767Z,97886.31
2019-04-30T07:12:30.544Z,97890.02
2019-04-30T07:17:31.537Z,97886.53
2019-04-30T07:22:40.178Z,97884.36
2019-04-30T07:27:35.294Z,97877.34
2019-04-30T07:32:36.160Z,97887.27
2019-04-30T07:37:38.966Z,97892.73
2019-04-30T07:42:44.602Z,97900.50
2019-04-30T07:47:42.613Z,97899.30
2019-04-30T07:52:58.895Z,97901.47
2019-04-30T07:57:46.248Z,97900.84
2019-04-30T08:02:51.815Z,97899.30
2019-04-30T08:07:52.697Z,97898.20
2019-04-30T08:12:54.093Z,97898.70
2019-04-30T08:18:03.565Z,97906.70
2019-04-30T08:23:03.094Z,97901.25
2019-04-30T08:28:00.933Z,97900.85
2019-04-30T08:33:01.996Z,97894.06
2019-04-30T08:38:03.073Z,97906.21
2019-04-30T08:43:04.059Z,97922.34
2019-04-30T08:48:05.215Z,97917.59
2019-04-30T08:53:06.163Z,97920.75
2019-04-30T08:58:11.973Z,97932.86
2019-04-30T09:03:09.925Z,97938.55
2019-04-30T09:08:12.613Z,97938.46
2019-04-30T09:13:13.480Z,97949.27
2019-04-30T09:18:14.353Z,97947.45
2019-04-30T09:23:15.235Z,97954.12
2019-04-30T09:28:16.221Z,97954.86
2019-04-30T09:33:17.072Z,97953.23
2019-04-30T09:38:19.544Z,97958.97
2019-04-30T09:43:20.922Z,97955.71
2019-04-30T09:48:22.838Z,97958.23
2019-04-30T09:53:24.729Z,97968.33
2019-04-30T09:58:25.804Z,97961.01
2019-04-30T10:03:27.269Z,97970.62
2019-04-30T10:08:30.656Z,97967.59
2019-04-30T10:13:32.388Z,97971.70
2019-04-30T10:18:33.745Z,97970.94
2019-04-30T10:23:34.623Z,97972.75
2019-04-30T10:28:37.808Z,97974.88
2019-04-30T10:33:38.720Z,97962.27
2019-04-30T10:38:39.552Z,97946.09
2019-04-30T10:43:40.650Z,97944.98
2019-04-30T10:48:43.489Z,97955.53
2019-04-30T10:53:44.375Z,97951.50
2019-04-30T10:58:45.444Z,97958.38
2019-04-30T11:03:46.423Z,97958.89
2019-04-30T11:08:47.299Z,97955.59
2019-04-30T11:13:48.183Z,97951.98
2019-04-30T11:18:49.235Z,97944.49
2019-04-30T11:23:50.883Z,97954.80
2019-04-30T11:28:52.515Z,97958.56
2019-04-30T11:33:55.623Z,97935.34
2019-04-30T11:38:58.255Z,97947.13
2019-04-30T11:43:59.572Z,97956.64
2019-04-30T11:49:00.671Z,97948.14
2019-04-30T11:54:01.547Z,97951.39
2019-04-30T11:59:02.715Z,97954.55
2019-04-30T12:04:03.888Z,97943.30
2019-04-30T12:09:15.334Z,97941.03
2019-04-30T12:14:16.316Z,97936.73
2019-04-30T12:19:18.916Z,97940.18
2019-04-30T12:24:20.112Z,97955.38
2019-04-30T12:29:21.073Z,97942.64
2019-04-30T12:34:24.707Z,97943.05
2019-04-30T12:39:25.658Z,97943.64
2019-04-30T12:44:26.631Z,97943.83
2019-04-30T12:49:29.639Z,97945.53
2019-04-30T12:54:41.760Z,97949.89
2019-04-30T12:59:42.643Z,97941.52
2019-04-30T13:04:43.503Z,97939.69
2019-04-30T13:09:44.974Z,97937.53
2019-04-30T13:14:52.497Z,97940.48
2019-04-30T13:19:48.981Z,97941.19
2019-04-30T13:24:49.990Z,97943.20
2019-04-30T13:29:52.751Z,97940.85
2019-04-30T13:35:00.680Z,97931.14
2019-04-30T13:40:09.215Z,97931.86
2019-04-30T13:45:10.540Z,97930.41
2019-04-30T13:50:12.463Z,97920.44
2019-04-30T13:55:13.423Z,97915.55
2019-04-30T14:00:18.590Z,97913.88
2019-04-30T14:05:19.976Z,97902.75
2019-04-30T14:10:21.317Z,97893.77
2019-04-30T14:15:22.309Z,97895.05
2019-04-30T14:20:23.830Z,97895.05
2019-04-30T14:25:24.701Z,97898.86
2019-04-30T14:30:25.676Z,97900.91
2019-04-30T14:35:28.681Z,97882.93
2019-04-30T14:40:33.156Z,97883.12
2019-04-30T14:45:40.698Z,97876.84
2019-04-30T14:50:42.479Z,97884.44
2019-04-30T14:55:54.270Z,97893.80
2019-04-30T15:01:09.395Z,97893.80
2019-04-30T15:06:10.681Z,97878.88
2019-04-30T15:11:12.048Z,97878.88
2019-04-30T15:16:13.077Z,97866.97
2019-04-30T15:21:14.097Z,97859.00
2019-04-30T15:26:22.083Z,97867.56
2019-04-30T15:31:18.543Z,97847.69
2019-04-30T15:36:19.755Z,97851.85
2019-04-30T15:41:21.039Z,97842.67
2019-04-30T15:46:22.720Z,97825.04
2019-04-30T15:51:23.791Z,97834.13
2019-04-30T15:56:34.405Z,97834.46
2019-04-30T16:01:29.085Z,97855.06
2019-04-30T16:06:30.292Z,97874.69
2019-04-30T16:11:33.114Z,97874.27
2019-04-30T16:16:36.494Z,97876.28
2019-04-30T16:21:37.363Z,97888.42
2019-04-30T16:26:49.038Z,97884.41
2019-04-30T16:31:41.191Z,97885.17
2019-04-30T16:36:42.081Z,97883.34
2019-04-30T16:41:43.044Z,97944.09
2019-04-30T16:46:43.928Z,97931.55
2019-04-30T16:51:44.973Z,97890.58
2019-04-30T16:56:46.138Z,97917.31
2019-04-30T17:01:57.455Z,97896.34
2019-04-30T17:07:12.109Z,97900.59
2019-04-30T17:12:23.870Z,97912.16
2019-04-30T17:17:24.875Z,97926.08
2019-04-30T17:22:25.754Z,97914.45
2019-04-30T17:27:26.629Z,97912.31
2019-04-30T17:32:28.598Z,97918.42
2019-04-30T17:37:31.484Z,97919.52
2019-04-30T17:42:32.375Z,97915.89
2019-04-30T17:47:33.256Z,97915.09
2019-04-30T17:52:34.212Z,97927.95
2019-04-30T17:57:35.191Z,97935.58
2019-04-30T18:02:36.172Z,97939.35
2019-04-30T18:07:37.150Z,97943.55
2019-04-30T18:12:39.133Z,97954.70
2019-04-30T18:17:41.415Z,97952.02
2019-04-30T18:23:01.142Z,97969.77
2019-04-30T18:28:04.372Z,97973.08
2019-04-30T18:33:06.172Z,97986.59
2019-04-30T18:38:07.152Z,97995.41
2019-04-30T18:43:08.228Z,97991.33
2019-04-30T18:48:09.698Z,98001.25
2019-04-30T18:53:13.239Z,98009.32
2019-04-30T18:58:14.106Z,98014.62
2019-04-30T19:03:15.182Z,98022.53
2019-04-30T19:08:19.486Z,98035.73
2019-04-30T19:13:22.406Z,98035.73
2019-04-30T19:18:25.193Z,98041.23
2019-04-30T19:23:26.159Z,98050.72
2019-04-30T19:28:28.692Z,98056.28
2019-04-30T19:33:31.218Z,98063.13
2019-04-30T19:38:32.390Z,98056.27
2019-04-30T19:43:33.254Z,98060.37
2019-04-30T19:48:35.814Z,98063.40
2019-04-30T19:53:36.687Z,98063.53
2019-04-30T19:58:52.340Z,98070.73
2019-04-30T20:03:40.845Z,98072.42
2019-04-30T20:08:42.428Z,98076.43
2019-04-30T20:13:43.410Z,98077.89
2019-04-30T20:18:44.283Z,98086.13
2019-04-30T20:23:45.150Z,98082.26
2019-04-30T20:28:46.134Z,98084.67
2019-04-30T20:33:48.950Z,98090.50
2019-04-30T20:39:01.279Z,98086.25
2019-04-30T20:44:02.477Z,98092.56
2019-04-30T20:49:05.345Z,98082.50
2019-04-30T20:54:06.436Z,98087.59
2019-04-30T20:59:10.459Z,98094.63
2019-04-30T21:04:10.467Z,98093.28
2019-04-30T21:09:11.373Z,98101.77
2019-04-30T21:14:18.702Z,98073.42
2019-04-30T21:19:19.980Z,98096.78
2019-04-30T21:24:20.844Z,98100.12
2019-04-30T21:29:21.715Z,98101.66
2019-04-30T21:34:30.112Z,98098.39
2019-04-30T21:39:30.968Z,98105.80
2019-04-30T21:44:31.822Z,98107.96
2019-04-30T21:49:32.884Z,98107.03
2019-04-30T21:54:33.746Z,98099.28
2019-04-30T21:59:34.602Z,98096.61
2019-04-30T22:04:35.773Z,98090.41
2019-04-30T22:09:37.491Z,98084.16
2019-04-30T22:14:38.592Z,98083.91
2019-04-30T22:19:39.579Z,98082.05
2019-04-30T22:24:40.469Z,98079.84
2019-04-30T22:29:42.271Z,98088.56
2019-04-30T22:34:43.419Z,98094.84
2019-04-30T22:39:46.198Z,98095.19
